Time,TemperatureF,DewpointF,PressureIn,WindDirection,WindDirectionDegrees,WindSpeedMPH,WindSpeedGustMPH,Humidity,HourlyPrecipIn,Conditions,Clouds,dailyrainin,SoftwareType,DateUTC
2013-02-20 00:02:00,66.9,63.5,30.06,WSW,248,0.0,0.0,89,0.00,,,0.00,WSDL version 420,2013-02-20 05:02:00,
2013-02-20 00:07:00,66.9,63.5,30.03,WSW,248,0.0,0.0,89,0.00,,,0.00,WSDL version 420,2013-02-20 05:07:00,
2013-02-20 00:12:00,66.9,63.9,30.03,SW,225,0.0,0.0,90,0.00,,,0.00,WSDL version 420,2013-02-20 05:12:00,
2013-02-20 00:17:00,66.9,63.8,30.03,SW,225,0.0,0.0,90,0.00,,,0.00,WSDL version 420,2013-02-20 05:17:00,
2013-02-20 00:22:00,66.7,63.7,30.03,SW,225,0.0,0.0,90,0.00,,,0.00,WSDL version 420,2013-02-20 05:22:00,
2013-02-20 00:27:00,66.7,63.4,30.03,SW,225,0.0,0.0,89,0.00,,,0.00,WSDL version 420,2013-02-20 05:27:00,
2013-02-20 00:32:00,66.5,63.1,30.03,SW,225,0.0,0.0,89,0.00,,,0.00,WSDL version 420,2013-02-20 05:32:00,
2013-02-20 00:37:00,66.4,63.0,30.06,SW,225,0.0,0.0,89,0.00,,,0.00,WSDL version 420,2013-02-20 05:37:00,
2013-02-20 00:42:00,66.2,62.8,30.06,SW,225,0.0,0.0,89,0.00,,,0.00,WSDL version 420,2013-02-20 05:42:00,
2013-02-20 00:47:00,66.1,62.9,30.06,SW,225,0.0,0.0,90,0.00,,,0.00,WSDL version 420,2013-02-20 05:47:00,
2013-02-20 00:52:00,65.9,62.9,30.06,SW,225,0.0,0.0,90,0.00,,,0.00,WSDL version 420,2013-02-20 05:52:00,
2013-02-20 00:57:00,65.8,62.7,30.06,SW,225,0.0,0.0,90,0.00,,,0.00,WSDL version 420,2013-02-20 05:57:00,
2013-02-20 01:07:00,65.4,62.4,30.06,SW,225,0.0,0.0,90,0.00,,,0.00,WSDL version 420,2013-02-20 06:07:00,
2013-02-20 01:12:00,65.1,61.8,30.06,SW,225,0.0,0.0,89,0.00,,,0.00,WSDL version 420,2013-02-20 06:12:00,
2013-02-20 01:17:00,65.0,61.8,30.06,SW,225,0.0,0.0,89,0.00,,,0.00,WSDL version 420,2013-02-20 06:17:00,
2013-02-20 01:22:00,64.8,61.6,30.06,SW,225,0.0,0.0,90,0.00,,,0.00,WSDL version 420,2013-02-20 06:22:00,
2013-02-20 01:27:00,64.7,61.7,30.06,SW,225,0.0,0.0,90,0.00,,,0.00,WSDL version 420,2013-02-20 06:27:00,
2013-02-20 01:32:00,64.6,61.6,30.06,SW,225,0.0,0.0,90,0.00,,,0.00,WSDL version 420,2013-02-20 06:32:00,
2013-02-20 01:37:00,64.4,61.4,30.06,SW,225,0.0,0.0,90,0.00,,,0.00,WSDL version 420,2013-02-20 06:37:00,
2013-02-20 01:42:00,64.2,61.2,30.06,SW,225,0.0,0.0,90,0.00,,,0.00,WSDL version 420,2013-02-20 06:42:00,
2013-02-20 01:47:00,64.1,61.2,30.06,SW,225,0.0,0.0,90,0.00,,,0.00,WSDL version 420,2013-02-20 06:47:00,
2013-02-20 01:53:00,64.0,61.0,30.06,WSW,244,0.0,0.0,90,0.00,,,0.00,WSDL version 420,2013-02-20 06:53:00,
2013-02-20 02:02:00,63.9,61.0,30.06,North,360,0.0,0.0,91,0.00,,,0.00,WSDL version 420,2013-02-20 07:02:00,
2013-02-20 02:07:00,63.9,61.2,30.06,North,360,0.0,0.0,91,0.00,,,0.00,WSDL version 420,2013-02-20 07:07:00,
2013-02-20 02:12:00,63.9,61.2,30.06,North,360,0.0,0.0,91,0.00,,,0.00,WSDL version 420,2013-02-20 07:12:00,
2013-02-20 02:17:00,64.0,61.4,30.06,WNW,293,0.0,0.0,91,0.00,,,0.00,WSDL version 420,2013-02-20 07:17:00,
2013-02-20 02:22:00,64.0,61.4,30.03,West,273,0.0,0.0,91,0.00,,,0.00,WSDL version 420,2013-02-20 07:22:00,
2013-02-20 02:27:00,64.0,61.4,30.03,SW,225,0.0,0.0,91,0.00,,,0.00,WSDL version 420,2013-02-20 07:27:00,
2013-02-20 02:32:00,64.0,61.4,30.03,SW,225,0.0,0.0,91,0.00,,,0.00,WSDL version 420,2013-02-20 07:32:00,
2013-02-20 02:37:00,64.2,61.9,30.06,SW,225,0.0,0.0,92,0.00,,,0.00,WSDL version 420,2013-02-20 07:37:00,
2013-02-20 02:42:00,64.3,62.0,30.06,SW,225,0.0,0.0,92,0.00,,,0.00,WSDL version 420,2013-02-20 07:42:00,
2013-02-20 02:47:00,64.4,62.1,30.06,WSW,248,0.0,0.0,92,0.00,,,0.00,WSDL version 420,2013-02-20 07:47:00,
2013-02-20 02:52:00,64.6,62.3,30.03,WSW,248,0.0,0.0,92,0.00,,,0.00,WSDL version 420,2013-02-20 07:52:00,
2013-02-20 02:57:00,64.6,62.3,30.03,WSW,248,0.0,0.0,92,0.00,,,0.00,WSDL version 420,2013-02-20 07:57:00,
2013-02-20 03:06:00,64.5,62.1,30.03,WSW,248,0.0,0.0,91,0.00,,,0.00,WSDL version 420,2013-02-20 08:06:00,
2013-02-20 03:11:00,64.4,61.8,30.03,WSW,248,0.0,0.0,91,0.00,,,0.00,WSDL version 420,2013-02-20 08:11:00,
2013-02-20 03:16:00,64.2,61.9,30.03,WSW,248,0.0,0.0,92,0.00,,,0.00,WSDL version 420,2013-02-20 08:16:00,
2013-02-20 03:21:00,64.0,61.4,30.03,WSW,248,0.0,0.0,91,0.00,,,0.00,WSDL version 420,2013-02-20 08:21:00,
2013-02-20 03:26:00,63.9,61.2,30.03,WSW,248,0.0,0.0,91,0.00,,,0.00,WSDL version 420,2013-02-20 08:26:00,
2013-02-20 03:31:00,63.9,61.2,30.03,WSW,248,0.0,0.0,91,0.00,,,0.00,WSDL version 420,2013-02-20 08:31:00,
2013-02-20 03:36:00,63.7,61.4,30.00,WSW,248,0.0,0.0,92,0.00,,,0.00,WSDL version 420,2013-02-20 08:36:00,
2013-02-20 03:41:00,63.4,60.8,30.00,WSW,248,0.0,0.0,91,0.00,,,0.00,WSDL version 420,2013-02-20 08:41:00,
2013-02-20 03:46:00,63.2,60.6,30.00,WSW,248,0.0,0.0,91,0.00,,,0.00,WSDL version 420,2013-02-20 08:46:00,
2013-02-20 03:51:00,63.1,60.4,30.03,WNW,293,0.0,0.0,91,0.00,,,0.00,WSDL version 420,2013-02-20 08:51:00,
2013-02-20 03:56:00,62.9,60.2,30.03,WNW,293,0.0,0.0,91,0.00,,,0.00,WSDL version 420,2013-02-20 08:56:00,
2013-02-20 04:01:00,62.6,60.0,30.03,WNW,293,0.0,0.0,91,0.00,,,0.00,WSDL version 420,2013-02-20 09:01:00,
2013-02-20 04:06:00,62.6,60.0,30.03,WNW,293,0.0,0.0,91,0.00,,,0.00,WSDL version 420,2013-02-20 09:06:00,
2013-02-20 04:11:00,62.6,60.1,30.03,West,270,0.0,0.0,91,0.00,,,0.00,WSDL version 420,2013-02-20 09:11:00,
2013-02-20 04:16:00,62.6,60.2,30.03,West,270,0.0,0.0,92,0.00,,,0.00,WSDL version 420,2013-02-20 09:16:00,
2013-02-20 04:21:00,62.6,60.3,30.00,West,270,0.0,0.0,92,0.00,,,0.00,WSDL version 420,2013-02-20 09:21:00,
2013-02-20 04:26:00,62.4,60.1,30.00,West,270,0.0,0.0,92,0.00,,,0.00,WSDL version 420,2013-02-20 09:26:00,
2013-02-20 04:31:00,62.4,60.1,30.00,West,270,0.0,0.0,92,0.00,,,0.00,WSDL version 420,2013-02-20 09:31:00,
2013-02-20 04:36:00,62.2,60.0,30.03,West,270,0.0,0.0,92,0.00,,,0.00,WSDL version 420,2013-02-20 09:36:00,
2013-02-20 04:41:00,62.2,60.0,30.03,West,270,0.0,0.0,92,0.00,,,0.00,WSDL version 420,2013-02-20 09:41:00,
2013-02-20 04:46:00,62.2,59.9,30.03,West,270,0.0,0.0,92,0.00,,,0.00,WSDL version 420,2013-02-20 09:46:00,
2013-02-20 04:51:00,62.1,59.8,30.03,West,270,0.0,0.0,92,0.00,,,0.00,WSDL version 420,2013-02-20 09:51:00,
2013-02-20 04:56:00,62.1,59.8,30.03,West,270,0.0,0.0,92,0.00,,,0.00,WSDL version 420,2013-02-20 09:56:00,
2013-02-20 05:01:00,62.1,59.9,30.03,West,270,0.0,0.0,92,0.00,,,0.00,WSDL version 420,2013-02-20 10:01:00,
2013-02-20 05:06:00,62.0,59.8,30.03,West,270,0.0,0.0,92,0.00,,,0.00,WSDL version 420,2013-02-20 10:06:00,
2013-02-20 05:11:00,61.9,59.6,30.03,West,270,0.0,0.0,92,0.00,,,0.00,WSDL version 420,2013-02-20 10:11:00,
2013-02-20 05:16:00,61.7,59.4,30.03,West,270,0.0,0.0,92,0.00,,,0.00,WSDL version 420,2013-02-20 10:16:00,
2013-02-20 05:21:00,61.7,59.4,30.03,West,270,0.0,0.0,92,0.00,,,0.00,WSDL version 420,2013-02-20 10:21:00,
2013-02-20 05:26:00,61.7,59.4,30.03,West,270,0.0,0.0,92,0.00,,,0.00,WSDL version 420,2013-02-20 10:26:00,
2013-02-20 05:31:00,61.8,59.9,30.03,West,270,0.0,0.0,93,0.00,,,0.00,WSDL version 420,2013-02-20 10:31:00,
2013-02-20 05:36:00,61.9,59.9,30.03,West,270,0.0,0.0,93,0.00,,,0.00,WSDL version 420,2013-02-20 10:36:00,
2013-02-20 05:41:00,62.0,60.0,30.03,West,270,0.0,0.0,93,0.00,,,0.00,WSDL version 420,2013-02-20 10:41:00,
2013-02-20 05:46:00,62.1,60.1,30.03,West,270,0.0,0.0,93,0.00,,,0.00,WSDL version 420,2013-02-20 10:46:00,
2013-02-20 05:51:00,62.0,60.1,30.03,NNW,330,0.0,0.0,93,0.00,,,0.00,WSDL version 420,2013-02-20 10:51:00,
2013-02-20 05:56:00,61.9,59.9,30.03,North,360,0.0,0.0,93,0.00,,,0.00,WSDL version 420,2013-02-20 10:56:00,
2013-02-20 06:01:00,61.9,59.9,30.03,North,353,0.0,0.0,93,0.00,,,0.00,WSDL version 420,2013-02-20 11:01:00,
2013-02-20 06:06:00,61.9,60.0,30.03,WNW,297,0.0,0.0,93,0.00,,,0.00,WSDL version 420,2013-02-20 11:06:00,
2013-02-20 06:11:00,62.1,60.2,30.03,SSW,203,0.0,0.0,94,0.00,,,0.00,WSDL version 420,2013-02-20 11:11:00,
2013-02-20 06:16:00,62.1,60.5,30.03,North,357,0.0,0.0,94,0.00,,,0.00,WSDL version 420,2013-02-20 11:16:00,
2013-02-20 06:21:00,62.1,60.2,30.06,NNW,347,0.0,0.0,93,0.00,,,0.00,WSDL version 420,2013-02-20 11:21:00,
2013-02-20 06:26:00,62.1,60.1,30.06,NNW,338,0.0,0.0,93,0.00,,,0.00,WSDL version 420,2013-02-20 11:26:00,
2013-02-20 06:31:00,62.1,60.3,30.06,NNW,338,0.0,0.0,94,0.00,,,0.00,WSDL version 420,2013-02-20 11:31:00,
2013-02-20 06:36:00,62.0,60.4,30.06,NNW,338,0.0,0.0,94,0.00,,,0.00,WSDL version 420,2013-02-20 11:36:00,
2013-02-20 06:41:00,61.9,59.9,30.06,NNW,338,0.0,0.0,93,0.00,,,0.00,WSDL version 420,2013-02-20 11:41:00,
2013-02-20 06:46:00,61.7,59.8,30.06,SSW,206,0.0,0.0,93,0.00,,,0.00,WSDL version 420,2013-02-20 11:46:00,
2013-02-20 06:51:00,61.6,59.6,30.06,South,180,0.0,0.0,93,0.00,,,0.00,WSDL version 420,2013-02-20 11:51:00,
2013-02-20 06:56:00,61.7,59.8,30.06,South,180,0.0,0.0,93,0.00,,,0.00,WSDL version 420,2013-02-20 11:56:00,
2013-02-20 07:01:00,61.7,59.7,30.06,South,180,0.0,0.0,93,0.00,,,0.00,WSDL version 420,2013-02-20 12:01:00,
2013-02-20 07:06:00,61.5,59.6,30.06,South,180,0.0,0.0,93,0.00,,,0.00,WSDL version 420,2013-02-20 12:06:00,
2013-02-20 07:11:00,61.5,59.6,30.06,South,180,0.0,0.0,93,0.00,,,0.00,WSDL version 420,2013-02-20 12:11:00,
2013-02-20 07:16:00,61.5,59.6,30.06,South,180,0.0,0.0,93,0.00,,,0.00,WSDL version 420,2013-02-20 12:16:00,
2013-02-20 07:21:00,61.3,59.4,30.06,South,180,0.0,0.0,93,0.00,,,0.00,WSDL version 420,2013-02-20 12:21:00,
2013-02-20 07:26:00,61.5,59.6,30.06,South,180,0.0,0.0,93,0.00,,,0.00,WSDL version 420,2013-02-20 12:26:00,
2013-02-20 07:31:00,61.5,59.6,30.06,South,180,0.0,0.0,93,0.00,,,0.00,WSDL version 420,2013-02-20 12:31:00,
2013-02-20 07:36:00,61.6,59.7,30.06,South,180,0.0,0.0,93,0.00,,,0.00,WSDL version 420,2013-02-20 12:36:00,
2013-02-20 07:41:00,61.8,59.8,30.06,South,180,0.0,0.0,93,0.00,,,0.00,WSDL version 420,2013-02-20 12:41:00,
2013-02-20 07:46:00,62.1,60.4,30.06,South,180,0.0,0.0,94,0.00,,,0.00,WSDL version 420,2013-02-20 12:46:00,
2013-02-20 07:51:00,62.5,60.9,30.06,WNW,293,0.0,0.0,94,0.00,,,0.00,WSDL version 420,2013-02-20 12:51:00,
2013-02-20 07:56:00,62.8,61.2,30.06,North,360,0.0,0.0,94,0.00,,,0.00,WSDL version 420,2013-02-20 12:56:00,
2013-02-20 08:01:00,63.1,61.4,30.06,North,360,0.0,0.0,94,0.00,,,0.00,WSDL version 420,2013-02-20 13:01:00,
2013-02-20 08:06:00,63.4,61.8,30.06,North,351,0.0,0.0,94,0.00,,,0.00,WSDL version 420,2013-02-20 13:06:00,
2013-02-20 08:11:00,63.7,62.1,30.06,NNW,345,0.0,0.0,94,0.00,,,0.00,WSDL version 420,2013-02-20 13:11:00,
2013-02-20 08:16:00,64.1,62.4,30.06,North,353,0.0,0.0,94,0.00,,,0.00,WSDL version 420,2013-02-20 13:16:00,
2013-02-20 08:21:00,64.4,62.8,30.06,North,360,0.0,0.0,94,0.00,,,0.00,WSDL version 420,2013-02-20 13:21:00,
2013-02-20 08:26:00,64.7,63.1,30.06,North,360,0.0,0.0,94,0.00,,,0.00,WSDL version 420,2013-02-20 13:26:00,
2013-02-20 08:31:00,65.1,63.4,30.06,NNW,343,0.0,0.0,94,0.00,,,0.00,WSDL version 420,2013-02-20 13:31:00,
2013-02-20 08:36:00,65.4,63.8,30.06,NW,323,0.7,2.0,94,0.00,,,0.00,WSDL version 420,2013-02-20 13:36:00,
2013-02-20 08:41:00,65.7,64.1,30.06,NNW,332,0.4,2.2,94,0.00,,,0.00,WSDL version 420,2013-02-20 13:41:00,
2013-02-20 08:46:00,65.9,64.3,30.06,NW,326,0.0,2.2,94,0.00,,,0.00,WSDL version 420,2013-02-20 13:46:00,
2013-02-20 08:51:00,66.2,64.3,30.06,North,352,0.0,0.0,93,0.00,,,0.00,WSDL version 420,2013-02-20 13:51:00,
2013-02-20 08:56:00,66.5,64.5,30.06,NNW,331,0.0,0.0,93,0.00,,,0.00,WSDL version 420,2013-02-20 13:56:00,
2013-02-20 09:01:00,66.9,64.9,30.06,North,352,0.0,0.0,93,0.00,,,0.00,WSDL version 420,2013-02-20 14:01:00,
2013-02-20 09:06:00,67.1,65.0,30.09,North,353,0.0,0.0,92,0.00,,,0.00,WSDL version 420,2013-02-20 14:06:00,
2013-02-20 09:11:00,67.5,65.2,30.09,NNW,338,0.0,0.0,92,0.00,,,0.00,WSDL version 420,2013-02-20 14:11:00,
2013-02-20 09:16:00,68.0,65.6,30.09,North,10,1.2,2.2,92,0.00,,,0.00,WSDL version 420,2013-02-20 14:16:00,
2013-02-20 09:21:00,68.4,65.7,30.09,North,6,1.1,2.5,91,0.00,,,0.00,WSDL version 420,2013-02-20 14:21:00,
2013-02-20 09:26:00,68.7,65.9,30.09,NNW,347,0.9,2.5,90,0.00,,,0.00,WSDL version 420,2013-02-20 14:26:00,
2013-02-20 09:31:00,69.0,65.1,30.09,NNE,16,1.3,3.1,84,0.00,,,0.00,WSDL version 420,2013-02-20 14:31:00,
2013-02-20 09:36:00,69.4,64.6,30.09,North,349,1.3,3.1,84,0.00,,,0.00,WSDL version 420,2013-02-20 14:36:00,
2013-02-20 09:41:00,69.8,64.3,30.09,NNW,338,0.6,2.5,82,0.00,,,0.00,WSDL version 420,2013-02-20 14:41:00,
2013-02-20 09:46:00,70.1,64.0,30.09,WNW,299,0.0,2.0,80,0.00,,,0.00,WSDL version 420,2013-02-20 14:46:00,
2013-02-20 09:51:00,70.5,63.3,30.09,North,3,0.4,3.6,78,0.00,,,0.00,WSDL version 420,2013-02-20 14:51:00,
2013-02-20 09:56:00,71.0,63.7,30.09,NNE,16,1.6,3.8,77,0.00,,,0.00,WSDL version 420,2013-02-20 14:56:00,
2013-02-20 10:01:00,71.3,63.2,30.09,North,350,2.0,3.8,74,0.00,,,0.00,WSDL version 420,2013-02-20 15:01:00,
2013-02-20 10:06:00,71.7,62.3,30.06,North,3,1.9,3.6,72,0.00,,,0.00,WSDL version 420,2013-02-20 15:06:00,
2013-02-20 10:11:00,72.1,61.9,30.06,NNE,13,1.9,3.6,70,0.00,,,0.00,WSDL version 420,2013-02-20 15:11:00,
2013-02-20 10:16:00,72.4,61.8,30.06,North,11,1.5,3.6,68,0.00,,,0.00,WSDL version 420,2013-02-20 15:16:00,
2013-02-20 10:21:00,72.7,61.4,30.06,North,360,2.0,3.6,67,0.00,,,0.00,WSDL version 420,2013-02-20 15:21:00,
2013-02-20 10:26:00,72.9,61.3,30.06,North,6,2.3,3.1,67,0.00,,,0.00,WSDL version 420,2013-02-20 15:26:00,
2013-02-20 10:31:00,73.2,60.7,30.06,NNE,23,2.3,3.4,64,0.00,,,0.00,WSDL version 420,2013-02-20 15:31:00,
2013-02-20 10:36:00,73.6,60.6,30.06,NNE,15,2.2,3.4,64,0.00,,,0.00,WSDL version 420,2013-02-20 15:36:00,
2013-02-20 10:41:00,73.8,59.9,30.06,NNE,30,2.1,4.0,63,0.00,,,0.00,WSDL version 420,2013-02-20 15:41:00,
2013-02-20 10:46:00,74.2,60.9,30.06,North,357,1.7,4.3,63,0.00,,,0.00,WSDL version 420,2013-02-20 15:46:00,
2013-02-20 10:51:00,74.4,59.3,30.06,NNE,25,2.4,4.7,59,0.00,,,0.00,WSDL version 420,2013-02-20 15:51:00,
2013-02-20 10:56:00,74.6,59.1,30.06,East,83,3.1,4.7,56,0.00,,,0.00,WSDL version 420,2013-02-20 15:56:00,
2013-02-20 11:01:00,74.5,59.1,30.06,NE,49,2.5,7.2,59,0.00,,,0.00,WSDL version 420,2013-02-20 16:01:00,
2013-02-20 11:06:00,74.6,57.7,30.06,NNE,31,1.8,7.2,56,0.00,,,0.00,WSDL version 420,2013-02-20 16:06:00,
2013-02-20 11:11:00,74.4,58.2,30.06,North,360,1.3,5.6,58,0.00,,,0.00,WSDL version 420,2013-02-20 16:11:00,
2013-02-20 11:16:00,74.6,58.4,30.06,NNE,26,1.2,5.6,57,0.00,,,0.00,WSDL version 420,2013-02-20 16:16:00,
2013-02-20 11:21:00,74.9,57.0,30.06,NNW,340,3.4,5.8,53,0.00,,,0.00,WSDL version 420,2013-02-20 16:21:00,
2013-02-20 11:26:00,75.6,58.1,30.06,East,98,2.4,5.8,55,0.00,,,0.00,WSDL version 420,2013-02-20 16:26:00,
2013-02-20 11:31:00,76.1,58.0,30.06,NE,49,3.5,4.3,52,0.00,,,0.00,WSDL version 420,2013-02-20 16:31:00,
2013-02-20 11:36:00,76.4,57.3,30.06,North,11,2.5,4.3,51,0.00,,,0.00,WSDL version 420,2013-02-20 16:36:00,
2013-02-20 11:41:00,76.8,58.1,30.06,NE,35,2.0,4.0,52,0.00,,,0.00,WSDL version 420,2013-02-20 16:41:00,
2013-02-20 11:46:00,77.1,57.6,30.06,NNE,23,2.2,4.0,51,0.00,,,0.00,WSDL version 420,2013-02-20 16:46:00,
2013-02-20 11:51:00,76.7,56.3,30.06,ENE,75,2.7,4.3,49,0.00,,,0.00,WSDL version 420,2013-02-20 16:51:00,
2013-02-20 11:56:00,76.2,56.1,30.06,NE,39,2.5,4.3,49,0.00,,,0.00,WSDL version 420,2013-02-20 16:56:00,
2013-02-20 12:01:00,76.2,55.6,30.06,ENE,68,3.9,5.6,49,0.00,,,0.00,WSDL version 420,2013-02-20 17:01:00,
2013-02-20 12:06:00,76.9,56.3,30.06,NNE,27,2.8,5.6,50,0.00,,,0.00,WSDL version 420,2013-02-20 17:06:00,
2013-02-20 12:11:00,77.5,55.7,30.06,NE,36,3.0,5.4,47,0.00,,,0.00,WSDL version 420,2013-02-20 17:11:00,
2013-02-20 12:16:00,77.6,57.5,30.06,NNE,16,2.1,5.4,50,0.00,,,0.00,WSDL version 420,2013-02-20 17:16:00,
2013-02-20 12:21:00,76.7,55.6,30.06,ENE,63,2.9,3.8,48,0.00,,,0.00,WSDL version 420,2013-02-20 17:21:00,
2013-02-20 12:26:00,76.2,54.9,30.06,NE,34,2.2,5.8,47,0.00,,,0.00,WSDL version 420,2013-02-20 17:26:00,
2013-02-20 12:31:00,76.8,56.5,30.06,North,11,1.8,5.8,49,0.00,,,0.00,WSDL version 420,2013-02-20 17:31:00,
2013-02-20 12:36:00,76.7,56.3,30.06,NE,35,0.9,3.8,49,0.00,,,0.00,WSDL version 420,2013-02-20 17:36:00,
2013-02-20 12:41:00,76.6,55.9,30.06,NE,41,2.8,4.3,48,0.00,,,0.00,WSDL version 420,2013-02-20 17:41:00,
2013-02-20 12:46:00,77.1,56.4,30.06,East,86,1.9,4.3,49,0.00,,,0.00,WSDL version 420,2013-02-20 17:46:00,
2013-02-20 12:51:00,77.6,56.4,30.06,NE,34,1.0,3.6,48,0.00,,,0.00,WSDL version 420,2013-02-20 17:51:00,
2013-02-20 12:56:00,78.0,57.3,30.06,NNE,16,1.4,3.4,49,0.00,,,0.00,WSDL version 420,2013-02-20 17:56:00,
2013-02-20 13:01:00,77.6,56.5,30.06,NNW,332,1.5,2.9,48,0.00,,,0.00,WSDL version 420,2013-02-20 18:01:00,
2013-02-20 13:06:00,77.2,55.3,30.06,ENE,68,2.1,4.0,46,0.00,,,0.00,WSDL version 420,2013-02-20 18:06:00,
2013-02-20 13:11:00,77.7,55.9,30.06,NNE,23,2.3,4.0,47,0.00,,,0.00,WSDL version 420,2013-02-20 18:11:00,
2013-02-20 13:16:00,78.2,56.3,30.06,NNW,331,1.5,5.4,47,0.00,,,0.00,WSDL version 420,2013-02-20 18:16:00,
2013-02-20 13:21:00,78.5,56.8,30.03,ENE,64,1.9,5.4,47,0.00,,,0.00,WSDL version 420,2013-02-20 18:21:00,
2013-02-20 13:26:00,78.5,55.9,30.03,ENE,58,3.9,4.9,45,0.00,,,0.00,WSDL version 420,2013-02-20 18:26:00,
2013-02-20 13:31:00,78.3,55.7,30.03,North,356,2.9,5.8,46,0.00,,,0.00,WSDL version 420,2013-02-20 18:31:00,
2013-02-20 13:36:00,78.4,56.6,30.00,North,3,2.2,5.8,48,0.00,,,0.00,WSDL version 420,2013-02-20 18:36:00,
2013-02-20 13:41:00,78.8,56.7,30.00,NNE,27,2.2,4.0,46,0.00,,,0.00,WSDL version 420,2013-02-20 18:41:00,
2013-02-20 13:46:00,78.8,56.3,30.00,ENE,68,3.9,5.4,46,0.00,,,0.00,WSDL version 420,2013-02-20 18:46:00,
2013-02-20 13:51:00,78.7,55.8,30.00,ENE,75,3.9,5.6,45,0.00,,,0.00,WSDL version 420,2013-02-20 18:51:00,
2013-02-20 13:56:00,78.7,55.3,30.00,ENE,74,3.8,7.2,44,0.00,,,0.00,WSDL version 420,2013-02-20 18:56:00,
2013-02-20 14:01:00,78.7,55.4,30.00,ENE,64,2.2,7.2,45,0.00,,,0.00,WSDL version 420,2013-02-20 19:01:00,
2013-02-20 14:06:00,78.8,55.8,30.00,ESE,116,2.7,4.9,46,0.00,,,0.00,WSDL version 420,2013-02-20 19:06:00,
2013-02-20 14:11:00,78.7,56.2,30.00,North,356,1.7,4.3,46,0.00,,,0.00,WSDL version 420,2013-02-20 19:11:00,
2013-02-20 14:16:00,78.9,55.8,30.00,NNE,26,2.0,4.7,45,0.00,,,0.00,WSDL version 420,2013-02-20 19:16:00,
2013-02-20 14:21:00,78.7,55.4,30.00,NE,51,2.2,4.7,45,0.00,,,0.00,WSDL version 420,2013-02-20 19:21:00,
2013-02-20 14:26:00,78.8,55.2,30.00,NNE,26,2.4,4.7,44,0.00,,,0.00,WSDL version 420,2013-02-20 19:26:00,
2013-02-20 14:31:00,79.4,56.1,30.00,SSW,197,2.2,4.3,45,0.00,,,0.00,WSDL version 420,2013-02-20 19:31:00,
2013-02-20 14:36:00,79.6,55.3,29.97,ENE,64,3.0,4.3,43,0.00,,,0.00,WSDL version 420,2013-02-20 19:36:00,
2013-02-20 14:41:00,79.7,56.1,29.97,SE,132,2.0,4.0,45,0.00,,,0.00,WSDL version 420,2013-02-20 19:41:00,
2013-02-20 14:46:00,80.0,55.7,29.97,NE,56,2.8,4.7,43,0.00,,,0.00,WSDL version 420,2013-02-20 19:46:00,
2013-02-20 14:51:00,79.2,54.8,29.97,NE,56,2.2,4.7,43,0.00,,,0.00,WSDL version 420,2013-02-20 19:51:00,
2013-02-20 14:56:00,78.3,54.2,29.97,NE,53,2.2,4.3,44,0.00,,,0.00,WSDL version 420,2013-02-20 19:56:00,
2013-02-20 15:01:00,78.6,54.9,29.97,SE,132,3.0,6.0,44,0.00,,,0.00,WSDL version 420,2013-02-20 20:01:00,
2013-02-20 15:06:00,79.3,55.9,29.97,NW,315,0.4,6.0,44,0.00,,,0.00,WSDL version 420,2013-02-20 20:06:00,
2013-02-20 15:11:00,79.7,56.5,29.97,North,8,0.0,2.9,45,0.00,,,0.00,WSDL version 420,2013-02-20 20:11:00,
2013-02-20 15:16:00,80.2,57.1,29.97,SW,214,1.9,2.9,46,0.00,,,0.00,WSDL version 420,2013-02-20 20:16:00,
2013-02-20 15:21:00,80.8,57.7,29.97,ENE,61,3.1,5.4,45,0.00,,,0.00,WSDL version 420,2013-02-20 20:21:00,
2013-02-20 15:26:00,79.7,57.0,29.97,NE,39,3.4,8.7,46,0.00,,,0.00,WSDL version 420,2013-02-20 20:26:00,
2013-02-20 15:31:00,78.3,56.3,29.97,ENE,61,4.3,8.7,47,0.00,,,0.00,WSDL version 420,2013-02-20 20:31:00,
2013-02-20 15:36:00,77.5,56.1,29.97,NE,51,4.3,6.7,48,0.00,,,0.00,WSDL version 420,2013-02-20 20:36:00,
2013-02-20 15:41:00,77.4,56.4,29.97,NE,51,3.9,6.7,49,0.00,,,0.00,WSDL version 420,2013-02-20 20:41:00,
2013-02-20 15:46:00,77.5,57.3,29.97,ENE,60,3.7,6.5,50,0.00,,,0.00,WSDL version 420,2013-02-20 20:46:00,
2013-02-20 15:51:00,77.2,57.3,29.97,ENE,61,3.9,6.5,51,0.00,,,0.00,WSDL version 420,2013-02-20 20:51:00,
2013-02-20 15:56:00,77.5,57.7,29.97,NE,48,3.4,8.1,51,0.00,,,0.00,WSDL version 420,2013-02-20 20:56:00,
2013-02-20 16:01:00,78.0,58.3,29.97,SW,222,3.2,8.1,51,0.00,,,0.00,WSDL version 420,2013-02-20 21:01:00,
2013-02-20 16:06:00,78.2,58.0,29.97,ENE,73,2.8,6.3,50,0.00,,,0.00,WSDL version 420,2013-02-20 21:06:00,
2013-02-20 16:11:00,78.3,57.9,29.97,East,80,4.1,7.6,49,0.00,,,0.00,WSDL version 420,2013-02-20 21:11:00,
2013-02-20 16:16:00,78.3,57.9,29.97,NNE,19,2.8,7.6,49,0.00,,,0.00,WSDL version 420,2013-02-20 21:16:00,
2013-02-20 16:21:00,78.6,57.7,29.97,NE,55,1.8,4.0,49,0.00,,,0.00,WSDL version 420,2013-02-20 21:21:00,
2013-02-20 16:26:00,78.8,57.5,29.97,NE,42,2.7,3.6,48,0.00,,,0.00,WSDL version 420,2013-02-20 21:26:00,
2013-02-20 16:31:00,78.2,56.6,29.97,SSE,148,2.6,4.9,48,0.00,,,0.00,WSDL version 420,2013-02-20 21:31:00,
2013-02-20 16:36:00,77.7,56.6,29.97,ENE,58,1.5,5.8,49,0.00,,,0.00,WSDL version 420,2013-02-20 21:36:00,
2013-02-20 16:41:00,77.7,57.3,29.97,NE,49,2.7,5.8,49,0.00,,,0.00,WSDL version 420,2013-02-20 21:41:00,
2013-02-20 16:46:00,77.4,56.9,29.97,ENE,70,3.3,5.8,49,0.00,,,0.00,WSDL version 420,2013-02-20 21:46:00,
2013-02-20 16:51:00,77.0,57.0,29.97,ENE,58,2.1,5.8,50,0.00,,,0.00,WSDL version 420,2013-02-20 21:51:00,
2013-02-20 16:56:00,76.5,57.4,29.97,East,93,2.5,5.4,52,0.00,,,0.00,WSDL version 420,2013-02-20 21:56:00,
2013-02-20 17:01:00,76.3,57.7,29.97,ESE,107,2.2,5.4,53,0.00,,,0.00,WSDL version 420,2013-02-20 22:01:00,
2013-02-20 17:06:00,76.1,58.3,29.97,SSE,163,2.5,5.4,54,0.00,,,0.00,WSDL version 420,2013-02-20 22:06:00,
2013-02-20 17:11:00,75.7,58.1,29.97,NE,56,3.2,5.4,54,0.00,,,0.00,WSDL version 420,2013-02-20 22:11:00,
2013-02-20 17:16:00,75.5,58.2,29.97,ENE,60,3.0,5.4,55,0.00,,,0.00,WSDL version 420,2013-02-20 22:16:00,
2013-02-20 17:21:00,75.3,58.5,29.97,ENE,60,4.0,5.4,56,0.00,,,0.00,WSDL version 420,2013-02-20 22:21:00,
2013-02-20 17:26:00,75.0,58.6,29.97,ESE,120,3.1,5.4,57,0.00,,,0.00,WSDL version 420,2013-02-20 22:26:00,
2013-02-20 17:31:00,74.7,58.8,29.97,ENE,64,3.5,5.4,58,0.00,,,0.00,WSDL version 420,2013-02-20 22:31:00,
2013-02-20 17:36:00,74.5,58.8,29.97,ENE,61,2.1,5.4,58,0.00,,,0.00,WSDL version 420,2013-02-20 22:36:00,
2013-02-20 17:41:00,74.3,59.1,29.97,East,81,2.7,5.4,59,0.00,,,0.00,WSDL version 420,2013-02-20 22:41:00,
2013-02-20 17:46:00,74.0,59.3,29.97,East,83,2.3,5.4,60,0.00,,,0.00,WSDL version 420,2013-02-20 22:46:00,
2013-02-20 17:51:00,73.9,59.5,30.00,ENE,75,2.7,4.0,61,0.00,,,0.00,WSDL version 420,2013-02-20 22:51:00,
2013-02-20 17:56:00,73.7,59.3,30.00,ENE,70,1.4,4.0,61,0.00,,,0.00,WSDL version 420,2013-02-20 22:56:00,
2013-02-20 18:01:00,73.4,59.3,30.00,ENE,58,1.9,3.4,61,0.00,,,0.00,WSDL version 420,2013-02-20 23:01:00,
2013-02-20 18:06:00,73.2,59.4,30.00,East,90,1.4,3.4,62,0.00,,,0.00,WSDL version 420,2013-02-20 23:06:00,
2013-02-20 18:11:00,73.0,59.3,30.00,East,80,0.5,2.5,63,0.00,,,0.00,WSDL version 420,2013-02-20 23:11:00,
2013-02-20 18:16:00,72.7,59.4,30.00,NNE,23,0.0,2.5,63,0.00,,,0.00,WSDL version 420,2013-02-20 23:16:00,
2013-02-20 18:21:00,72.4,59.1,30.00,NNE,23,0.0,2.2,63,0.00,,,0.00,WSDL version 420,2013-02-20 23:21:00,
2013-02-20 18:26:00,72.0,58.7,30.00,East,98,0.0,2.2,63,0.00,,,0.00,WSDL version 420,2013-02-20 23:26:00,
2013-02-20 18:31:00,71.8,58.9,30.00,ESE,113,0.0,2.2,64,0.00,,,0.00,WSDL version 420,2013-02-20 23:31:00,
2013-02-20 18:36:00,71.5,58.8,29.97,East,90,0.0,0.0,65,0.00,,,0.00,WSDL version 420,2013-02-20 23:36:00,
2013-02-20 18:41:00,71.2,58.8,29.97,NNE,23,0.0,0.0,65,0.00,,,0.00,WSDL version 420,2013-02-20 23:41:00,
2013-02-20 18:46:00,70.8,58.6,29.97,NNE,23,0.0,0.0,66,0.00,,,0.00,WSDL version 420,2013-02-20 23:46:00,
2013-02-20 18:51:00,70.5,58.6,30.00,NNE,23,0.0,0.0,66,0.00,,,0.00,WSDL version 420,2013-02-20 23:51:00,
2013-02-20 18:56:00,70.2,58.7,30.00,NNE,23,0.0,0.0,67,0.00,,,0.00,WSDL version 420,2013-02-20 23:56:00,
2013-02-20 19:06:00,69.7,59.0,30.00,NE,45,0.0,0.0,69,0.00,,,0.00,WSDL version 420,2013-02-21 00:06:00,
2013-02-20 19:11:00,69.4,58.8,30.00,NE,45,0.0,0.0,69,0.00,,,0.00,WSDL version 420,2013-02-21 00:11:00,
2013-02-20 19:16:00,69.3,58.7,30.00,North,0,0.0,0.0,69,0.00,,,0.00,WSDL version 420,2013-02-21 00:16:00,
2013-02-20 19:21:00,69.3,59.0,30.00,North,0,0.0,0.0,70,0.00,,,0.00,WSDL version 420,2013-02-21 00:21:00,
2013-02-20 19:26:00,69.3,59.1,30.00,North,-999,-999.0,-999.0,70,0.00,,,0.00,WSDL version 420,2013-02-21 00:26:00,
2013-02-20 19:31:00,69.1,58.9,30.00,North,-999,-999.0,-999.0,70,0.00,,,0.00,WSDL version 420,2013-02-21 00:31:00,
2013-02-20 19:36:00,69.0,59.1,30.00,North,-999,-999.0,-999.0,71,0.00,,,0.00,WSDL version 420,2013-02-21 00:36:00,
2013-02-20 19:41:00,68.9,59.1,30.00,North,-999,-999.0,-999.0,71,0.00,,,0.00,WSDL version 420,2013-02-21 00:41:00,
2013-02-20 19:46:00,68.7,58.9,30.00,North,-999,-999.0,-999.0,71,0.00,,,0.00,WSDL version 420,2013-02-21 00:46:00,
2013-02-20 19:51:00,68.5,59.1,30.00,North,-999,-999.0,-999.0,72,0.00,,,0.00,WSDL version 420,2013-02-21 00:51:00,
2013-02-20 19:56:00,68.4,59.0,30.00,North,-999,-999.0,-999.0,72,0.00,,,0.00,WSDL version 420,2013-02-21 00:56:00,
2013-02-20 20:01:00,68.2,59.2,30.00,North,-999,-999.0,-999.0,73,0.00,,,0.00,WSDL version 420,2013-02-21 01:01:00,
2013-02-20 20:06:00,67.9,59.1,30.00,North,-999,-999.0,-999.0,74,0.00,,,0.00,WSDL version 420,2013-02-21 01:06:00,
2013-02-20 20:11:00,67.8,59.3,30.00,North,-999,-999.0,-999.0,75,0.00,,,0.00,WSDL version 420,2013-02-21 01:11:00,
2013-02-20 20:16:00,67.6,59.4,30.00,North,-999,-999.0,-999.0,75,0.00,,,0.00,WSDL version 420,2013-02-21 01:16:00,
2013-02-20 20:21:00,67.4,59.7,30.00,North,-999,-999.0,-999.0,77,0.00,,,0.00,WSDL version 420,2013-02-21 01:21:00,
2013-02-20 20:26:00,67.2,59.8,30.00,North,-999,-999.0,-999.0,77,0.00,,,0.00,WSDL version 420,2013-02-21 01:26:00,
2013-02-20 20:31:00,67.1,59.7,30.00,North,-999,-999.0,-999.0,77,0.00,,,0.00,WSDL version 420,2013-02-21 01:31:00,
2013-02-20 20:36:00,66.9,59.8,30.00,North,-999,-999.0,-999.0,78,0.00,,,0.00,WSDL version 420,2013-02-21 01:36:00,
2013-02-20 20:41:00,66.7,59.7,30.00,North,-999,-999.0,-999.0,78,0.00,,,0.00,WSDL version 420,2013-02-21 01:41:00,
2013-02-20 20:46:00,66.6,59.5,30.00,North,-999,-999.0,-999.0,78,0.00,,,0.00,WSDL version 420,2013-02-21 01:46:00,
2013-02-20 20:51:00,66.4,59.4,30.03,North,-999,-999.0,-999.0,79,0.00,,,0.00,WSDL version 420,2013-02-21 01:51:00,
2013-02-20 20:56:00,66.3,59.6,30.03,North,-999,-999.0,-999.0,79,0.00,,,0.00,WSDL version 420,2013-02-21 01:56:00,
2013-02-20 21:01:00,66.1,59.4,30.03,North,-999,-999.0,-999.0,79,0.00,,,0.00,WSDL version 420,2013-02-21 02:01:00,
2013-02-20 21:06:00,65.9,59.5,30.03,North,-999,-999.0,-999.0,80,0.00,,,0.00,WSDL version 420,2013-02-21 02:06:00,
2013-02-20 21:11:00,65.8,59.5,30.03,North,-999,-999.0,-999.0,80,0.00,,,0.00,WSDL version 420,2013-02-21 02:11:00,
2013-02-20 21:16:00,65.7,59.7,30.03,North,-999,-999.0,-999.0,81,0.00,,,0.00,WSDL version 420,2013-02-21 02:16:00,
2013-02-20 21:21:00,65.7,59.7,30.03,North,-999,-999.0,-999.0,81,0.00,,,0.00,WSDL version 420,2013-02-21 02:21:00,
2013-02-20 21:26:00,65.7,59.7,30.03,North,-999,-999.0,-999.0,81,0.00,,,0.00,WSDL version 420,2013-02-21 02:26:00,
2013-02-20 21:31:00,65.5,59.6,30.03,North,-999,-999.0,-999.0,81,0.00,,,0.00,WSDL version 420,2013-02-21 02:31:00,
2013-02-20 21:36:00,65.3,59.4,30.06,North,-999,-999.0,-999.0,81,0.00,,,0.00,WSDL version 420,2013-02-21 02:36:00,
2013-02-20 21:41:00,65.3,59.4,30.06,North,-999,-999.0,-999.0,81,0.00,,,0.00,WSDL version 420,2013-02-21 02:41:00,
2013-02-20 21:46:00,65.2,59.2,30.06,North,-999,-999.0,-999.0,81,0.00,,,0.00,WSDL version 420,2013-02-21 02:46:00,
2013-02-20 21:51:00,65.1,59.3,30.06,North,-999,-999.0,-999.0,82,0.00,,,0.00,WSDL version 420,2013-02-21 02:51:00,
2013-02-20 21:56:00,64.9,59.4,30.06,North,-999,-999.0,-999.0,82,0.00,,,0.00,WSDL version 420,2013-02-21 02:56:00,
2013-02-20 22:01:00,64.9,59.4,30.06,North,-999,-999.0,-999.0,82,0.00,,,0.00,WSDL version 420,2013-02-21 03:01:00,
2013-02-20 22:06:00,64.8,59.2,30.06,North,-999,-999.0,-999.0,82,0.00,,,0.00,WSDL version 420,2013-02-21 03:06:00,
2013-02-20 22:11:00,64.8,59.2,30.06,North,-999,-999.0,-999.0,82,0.00,,,0.00,WSDL version 420,2013-02-21 03:11:00,
2013-02-20 22:16:00,64.8,59.2,30.06,North,-999,-999.0,-999.0,82,0.00,,,0.00,WSDL version 420,2013-02-21 03:16:00,
2013-02-20 22:21:00,64.6,59.2,30.03,North,-999,-999.0,-999.0,83,0.00,,,0.00,WSDL version 420,2013-02-21 03:21:00,
2013-02-20 22:26:00,64.6,59.4,30.03,North,-999,-999.0,-999.0,83,0.00,,,0.00,WSDL version 420,2013-02-21 03:26:00,
2013-02-20 22:31:00,64.4,59.2,30.03,North,-999,-999.0,-999.0,83,0.00,,,0.00,WSDL version 420,2013-02-21 03:31:00,
2013-02-20 22:36:00,64.4,59.2,30.06,North,-999,-999.0,-999.0,83,0.00,,,0.00,WSDL version 420,2013-02-21 03:36:00,
2013-02-20 22:41:00,64.2,59.4,30.06,North,-999,-999.0,-999.0,84,0.00,,,0.00,WSDL version 420,2013-02-21 03:41:00,
2013-02-20 22:46:00,64.1,59.3,30.06,North,-999,-999.0,-999.0,84,0.00,,,0.00,WSDL version 420,2013-02-21 03:46:00,
2013-02-20 22:51:00,63.9,59.1,30.03,North,-999,-999.0,-999.0,84,0.00,,,0.00,WSDL version 420,2013-02-21 03:51:00,
2013-02-20 22:56:00,63.9,59.1,30.03,North,-999,-999.0,-999.0,84,0.00,,,0.00,WSDL version 420,2013-02-21 03:56:00,
2013-02-20 23:01:00,63.9,59.1,30.03,SSE,158,0.0,0.0,84,0.00,,,0.00,WSDL version 420,2013-02-21 04:01:00,
2013-02-20 23:11:00,63.9,59.4,30.03,SSE,158,0.0,0.0,86,0.00,,,0.00,WSDL version 420,2013-02-21 04:11:00,
2013-02-20 23:16:00,63.7,59.3,30.03,SSE,158,0.0,0.0,86,0.00,,,0.00,WSDL version 420,2013-02-21 04:16:00,
2013-02-20 23:21:00,63.6,59.2,30.03,NE,45,0.0,0.0,86,0.00,,,0.00,WSDL version 420,2013-02-21 04:21:00,
2013-02-20 23:26:00,63.5,59.1,30.03,North,360,0.0,0.0,86,0.00,,,0.00,WSDL version 420,2013-02-21 04:26:00,
2013-02-20 23:31:00,63.5,59.2,30.03,North,360,0.0,0.0,87,0.00,,,0.00,WSDL version 420,2013-02-21 04:31:00,
2013-02-20 23:36:00,63.5,59.1,30.03,North,360,0.0,0.0,86,0.00,,,0.00,WSDL version 420,2013-02-21 04:36:00,
2013-02-20 23:41:00,63.4,59.0,30.03,NNW,338,0.0,0.0,86,0.00,,,0.00,WSDL version 420,2013-02-21 04:41:00,
2013-02-20 23:46:00,63.3,58.9,30.03,NNW,342,0.0,0.0,86,0.00,,,0.00,WSDL version 420,2013-02-21 04:46:00,
2013-02-20 23:51:00,63.1,58.7,30.03,NNW,338,0.0,0.0,86,0.00,,,0.00,WSDL version 420,2013-02-21 04:51:00,
2013-02-20 23:56:00,63.1,58.9,30.03,NNW,338,0.0,0.0,87,0.00,,,0.00,WSDL version 420,2013-02-21 04:56:00,